Terminal Aerodrome Forecast
Issued by NWS Melbourne, FL

Home | Current Version | Previous Version | Text Only | Print | Product List | Glossary On
Versions: 1 2 3 4 5 6 7 8 9 10 11 12 13 14 15 16
000
FTUS42 KMLB 240500
TAFDAB
TAF
KDAB 240520Z 2406/2506 VRB03KT P6SM FEW030 FEW200
     FM241400 23006KT P6SM SCT025 SCT250
     FM241800 16007KT P6SM SCT030 SCT250
     FM250000 VRB04KT P6SM FEW030 SCT250=

USA.gov is the U.S. government's official web portal to all federal, state and local government web resources and services.